アディスアベバ の空港の天気 - METARとTAF

ボレ国際空港(アディスアベバ) ( HAAB / ADD ) - エチオピア アディスアベバ
飛行場実況気象(Metar)
観測時間08/25 18:00 EAT (08/25 15:00 UTC)
風向・風速南南東 3m/s
視程10km以上
天気現象
全天の4割程度の雲 雲底高度 760m
気温20℃
湿度64%
気圧1025hPa
METARHAAB 251500Z 15006KT 9999 SCT025 20/13 Q1025
過去の天気等 Google飛行場航空写真 Wunderground天気予報

過去48時間のMETAR

飛行場予報(TAF)
発表時間: 8/25 18:30 EAT (8/25 15:30 UTC)
予報対象時間: 25日21時 EAT ~ 27日3時 EAT
風向・風速不定 2m/s
視程10km以上
25日22時 EAT ~ 26日3時 EAT に徐々に
風向・風速北 3m/s
26日9時 EAT ~ 26日20時 EAT に徐々に
風向・風速南南西 4m/s
TAF HAAB 251530Z 2518/2624 VRB04KT 9999 -RA/SHRA BKN025 SCT070
BECMG 2519/2524 36005KT 7000M TSRA/SHRA FEW25CB
BECMG 2606/2617 20008KT 6000M TSRA/SHRA FEW25CB